Time;durP1;ratioP1;P1;durP2;ratioP2;P2;SDS_P1;SDS_P2;PMS_P1;PMS_P2;Temp;Humidity;BMP_temperature;BMP_pressure;BME280_temperature;BME280_humidity;BME280_pressure;Samples;Min_cycle;Max_cycle;Signal;HPM_P1;HPM_P2
2023/10/24 00:00:39;;;;;;;5.50;3.78;;;;;;;;;;5038254;28;20178;-81
2023/10/24 00:03:05;;;;;;;7.57;4.10;;;;;;;;;;5022048;28;20274;-81
2023/10/24 00:05:31;;;;;;;8.47;4.47;;;;;;;;;;5055915;28;20400;-81
2023/10/24 00:07:57;;;;;;;4.20;3.73;;;;;;;;;;5038186;28;20774;-81
2023/10/24 00:10:26;;;;;;;5.73;4.40;;;;;;;;;;5024654;28;20462;-81
2023/10/24 00:12:52;;;;;;;9.02;4.25;;;;;;;;;;5024314;28;20458;-81
2023/10/24 00:15:18;;;;;;;6.60;4.10;;;;;;;;;;5037786;28;20193;-80
2023/10/24 00:17:44;;;;;;;7.07;3.90;;;;;;;;;;5038606;28;20443;-81
2023/10/24 00:20:10;;;;;;;8.10;4.17;;;;;;;;;;5022185;28;20420;-80
2023/10/24 00:22:36;;;;;;;5.77;3.70;;;;;;;;;;5056133;28;20423;-80
2023/10/24 00:25:02;;;;;;;5.90;4.20;;;;;;;;;;5038697;28;20467;-81
2023/10/24 00:27:28;;;;;;;11.18;3.85;;;;;;;;;;5037803;28;20478;-81
2023/10/24 00:29:54;;;;;;;7.37;4.00;;;;;;;;;;5038029;28;20633;-80
2023/10/24 00:32:20;;;;;;;11.20;4.60;;;;;;;;;;5037485;28;20846;-81
2023/10/24 00:34:46;;;;;;;8.80;3.73;;;;;;;;;;5037619;28;20470;-81
2023/10/24 00:37:12;;;;;;;4.70;3.60;;;;;;;;;;5037773;28;20467;-80
2023/10/24 00:39:38;;;;;;;7.00;3.50;;;;;;;;;;5021281;28;20416;-81
2023/10/24 00:42:05;;;;;;;4.20;3.53;;;;;;;;;;5037599;28;20868;-81
2023/10/24 00:44:32;;;;;;;5.32;3.28;;;;;;;;;;5055317;28;20470;-80
2023/10/24 00:46:58;;;;;;;8.63;3.35;;;;;;;;;;5056264;28;20170;-81
2023/10/24 00:49:25;;;;;;;7.68;3.88;;;;;;;;;;5036464;28;20185;-81
2023/10/24 00:51:51;;;;;;;6.82;3.80;;;;;;;;;;5054876;28;20244;-81
2023/10/24 00:54:17;;;;;;;6.05;4.47;;;;;;;;;;5054994;28;20169;-81
2023/10/24 00:56:46;;;;;;;14.25;3.80;;;;;;;;;;5017699;28;20186;-80
2023/10/24 00:59:13;;;;;;;6.97;3.60;;;;;;;;;;5053725;28;20205;-80
2023/10/24 01:01:39;;;;;;;4.35;3.95;;;;;;;;;;5053404;28;20181;-80
2023/10/24 01:04:05;;;;;;;5.25;3.70;;;;;;;;;;5053404;28;20209;-81
2023/10/24 01:06:31;;;;;;;6.35;3.88;;;;;;;;;;5020475;28;20204;-81
2023/10/24 01:08:58;;;;;;;6.17;3.50;;;;;;;;;;5054881;28;20182;-82
2023/10/24 01:11:24;;;;;;;6.30;3.88;;;;;;;;;;5054658;28;20404;-81
2023/10/24 01:13:50;;;;;;;9.00;3.85;;;;;;;;;;5053741;28;20182;-81
2023/10/24 01:16:16;;;;;;;4.35;3.33;;;;;;;;;;5053521;28;20540;-81
2023/10/24 01:18:42;;;;;;;8.15;3.38;;;;;;;;;;5019746;28;20563;-81
2023/10/24 01:21:08;;;;;;;7.68;3.00;;;;;;;;;;5019963;28;20216;-81
2023/10/24 01:23:35;;;;;;;6.32;3.60;;;;;;;;;;5036973;28;20248;-81
2023/10/24 01:26:02;;;;;;;4.85;3.30;;;;;;;;;;5054727;28;20552;-80
2023/10/24 01:28:29;;;;;;;7.78;3.03;;;;;;;;;;5036361;28;20193;-81
2023/10/24 01:30:55;;;;;;;9.90;3.85;;;;;;;;;;5054107;28;20170;-81
2023/10/24 01:33:22;;;;;;;3.30;3.00;;;;;;;;;;5036518;28;20360;-81
2023/10/24 01:35:48;;;;;;;7.50;3.70;;;;;;;;;;5036675;28;20420;-81
2023/10/24 01:38:14;;;;;;;7.93;2.67;;;;;;;;;;5036243;28;20534;-81
2023/10/24 01:40:40;;;;;;;11.03;2.20;;;;;;;;;;5019962;28;20804;-81
2023/10/24 01:43:06;;;;;;;4.50;2.30;;;;;;;;;;5036493;28;20474;-81
2023/10/24 01:45:32;;;;;;;2.50;2.03;;;;;;;;;;5019624;28;20468;-82
2023/10/24 01:47:58;;;;;;;4.23;2.70;;;;;;;;;;5054432;28;20439;-80
2023/10/24 01:50:24;;;;;;;10.35;2.70;;;;;;;;;;5036033;28;20413;-81
2023/10/24 01:52:50;;;;;;;3.60;2.50;;;;;;;;;;5041747;28;20204;-81
2023/10/24 01:55:16;;;;;;;5.53;2.30;;;;;;;;;;5030921;28;20480;-81
2023/10/24 01:57:42;;;;;;;3.00;1.90;;;;;;;;;;5041979;28;20219;-82
2023/10/24 02:00:08;;;;;;;5.30;1.80;;;;;;;;;;5056994;28;20173;-81
2023/10/24 02:02:34;;;;;;;3.05;1.85;;;;;;;;;;5060156;28;20173;-82
2023/10/24 02:05:04;;;;;;;4.77;1.70;;;;;;;;;;5042912;28;20226;-80
2023/10/24 02:07:30;;;;;;;3.10;1.67;;;;;;;;;;5042759;28;20434;-81
2023/10/24 02:09:56;;;;;;;3.00;1.57;;;;;;;;;;5027001;28;20415;-81
2023/10/24 02:12:24;;;;;;;2.20;1.30;;;;;;;;;;5042049;28;20427;-82
2023/10/24 02:14:50;;;;;;;1.58;1.30;;;;;;;;;;5042177;28;20641;-82
2023/10/24 02:17:16;;;;;;;3.07;1.37;;;;;;;;;;5042795;28;20173;-82
2023/10/24 02:19:42;;;;;;;2.70;1.70;;;;;;;;;;5025875;28;20470;-82
2023/10/24 02:22:08;;;;;;;2.22;1.20;;;;;;;;;;5026271;28;20193;-81
2023/10/24 02:24:35;;;;;;;5.00;1.40;;;;;;;;;;5061282;28;20265;-81
2023/10/24 02:27:01;;;;;;;1.20;1.10;;;;;;;;;;5059929;28;20709;-81
2023/10/24 02:29:27;;;;;;;1.47;1.20;;;;;;;;;;5059944;28;20185;-81
2023/10/24 02:31:53;;;;;;;1.77;1.23;;;;;;;;;;5058793;28;20412;-81
2023/10/24 02:34:21;;;;;;;2.23;1.17;;;;;;;;;;5027086;28;20423;-82
2023/10/24 02:36:47;;;;;;;2.90;1.35;;;;;;;;;;5059637;28;20581;-81
2023/10/24 02:39:13;;;;;;;2.70;1.50;;;;;;;;;;5028357;28;20188;-82
2023/10/24 02:41:39;;;;;;;2.37;1.27;;;;;;;;;;5061255;28;20181;-80
2023/10/24 02:44:05;;;;;;;1.65;1.10;;;;;;;;;;5059393;28;20459;-82
2023/10/24 02:46:31;;;;;;;3.67;1.20;;;;;;;;;;5025614;28;20617;-81
2023/10/24 02:48:57;;;;;;;2.37;1.70;;;;;;;;;;5041973;28;20185;-81
2023/10/24 02:51:23;;;;;;;1.58;1.00;;;;;;;;;;5041118;28;20470;-82
2023/10/24 02:53:50;;;;;;;2.10;1.00;;;;;;;;;;5042082;28;20181;-82
2023/10/24 02:56:16;;;;;;;3.63;1.27;;;;;;;;;;5042484;28;20922;-80
2023/10/24 02:58:43;;;;;;;1.58;1.20;;;;;;;;;;5041743;28;20804;-81
2023/10/24 03:01:09;;;;;;;1.53;0.90;;;;;;;;;;5041544;28;20598;-80
2023/10/24 03:03:35;;;;;;;2.17;1.17;;;;;;;;;;5040155;28;20463;-81
2023/10/24 03:06:01;;;;;;;2.43;1.30;;;;;;;;;;5057187;28;20766;-81
2023/10/24 03:08:27;;;;;;;3.50;1.20;;;;;;;;;;5038872;28;20412;-81
2023/10/24 03:10:53;;;;;;;2.90;1.10;;;;;;;;;;5056087;28;20401;-82
2023/10/24 03:13:19;;;;;;;2.85;1.17;;;;;;;;;;5038602;28;20416;-81
2023/10/24 03:15:45;;;;;;;2.50;1.17;;;;;;;;;;5038727;28;20191;-81
2023/10/24 03:18:11;;;;;;;2.80;1.20;;;;;;;;;;5022479;28;20416;-81
2023/10/24 03:20:40;;;;;;;2.00;0.90;;;;;;;;;;5056332;28;20406;-81
2023/10/24 03:23:05;;;;;;;0.93;0.70;;;;;;;;;;5043202;28;20470;-81
2023/10/24 03:25:31;;;;;;;0.87;0.70;;;;;;;;;;5019388;28;20174;-81
2023/10/24 03:27:57;;;;;;;1.43;1.00;;;;;;;;;;5018649;28;20432;-81
2023/10/24 03:30:23;;;;;;;2.00;0.80;;;;;;;;;;5035262;28;20429;-81
2023/10/24 03:32:49;;;;;;;1.53;0.93;;;;;;;;;;5002235;28;20464;-81
2023/10/24 03:35:15;;;;;;;0.80;0.70;;;;;;;;;;5036490;28;20405;-81
2023/10/24 03:37:42;;;;;;;1.20;0.70;;;;;;;;;;5034455;28;20233;-81
2023/10/24 03:40:09;;;;;;;0.80;0.65;;;;;;;;;;5034956;28;20236;-81
2023/10/24 03:42:35;;;;;;;1.50;0.75;;;;;;;;;;5035889;28;20510;-81
2023/10/24 03:45:01;;;;;;;0.77;0.60;;;;;;;;;;5013841;28;20315;-81
2023/10/24 03:47:27;;;;;;;1.60;0.80;;;;;;;;;;5038385;28;20760;-81
2023/10/24 03:49:53;;;;;;;0.87;0.70;;;;;;;;;;5038565;28;20442;-82
2023/10/24 03:52:19;;;;;;;1.40;0.70;;;;;;;;;;5055850;28;20495;-81
2023/10/24 03:54:45;;;;;;;0.80;0.70;;;;;;;;;;5056129;28;20745;-81
2023/10/24 03:57:11;;;;;;;1.10;0.83;;;;;;;;;;5055969;28;20407;-81
2023/10/24 03:59:37;;;;;;;1.07;0.70;;;;;;;;;;5037899;28;20481;-81
2023/10/24 04:02:03;;;;;;;1.47;0.90;;;;;;;;;;5038166;28;20423;-81
2023/10/24 04:04:30;;;;;;;1.20;1.05;;;;;;;;;;5055699;28;20466;-81
2023/10/24 04:06:56;;;;;;;2.63;1.05;;;;;;;;;;5055471;28;20204;-81
2023/10/24 04:09:22;;;;;;;1.58;0.88;;;;;;;;;;5021561;28;20178;-81
2023/10/24 04:11:48;;;;;;;1.10;1.00;;;;;;;;;;5037188;28;20174;-81
2023/10/24 04:14:14;;;;;;;2.57;0.90;;;;;;;;;;5021086;28;20416;-81
2023/10/24 04:16:40;;;;;;;3.07;1.37;;;;;;;;;;5037310;28;20448;-81
2023/10/24 04:19:05;;;;;;;1.10;0.83;;;;;;;;;;5037961;28;20431;-81
2023/10/24 04:21:31;;;;;;;2.53;1.00;;;;;;;;;;5020913;28;20451;-81
2023/10/24 04:23:58;;;;;;;1.20;0.90;;;;;;;;;;5036688;28;20467;-82
2023/10/24 04:26:24;;;;;;;1.10;1.00;;;;;;;;;;5037583;28;20872;-81
2023/10/24 04:28:50;;;;;;;1.65;0.80;;;;;;;;;;5055053;28;20268;-81
2023/10/24 04:31:16;;;;;;;0.95;0.85;;;;;;;;;;5055502;28;20170;-80
2023/10/24 04:33:42;;;;;;;1.10;0.83;;;;;;;;;;5019578;28;20197;-81
2023/10/24 04:36:12;;;;;;;1.73;1.00;;;;;;;;;;5017554;28;20424;-81
2023/10/24 04:38:38;;;;;;;0.95;0.82;;;;;;;;;;5035142;28;20476;-81
2023/10/24 04:41:04;;;;;;;1.17;0.90;;;;;;;;;;5017301;28;20186;-81
2023/10/24 04:43:30;;;;;;;1.10;0.70;;;;;;;;;;5034870;28;20712;-81
2023/10/24 04:45:56;;;;;;;1.23;0.73;;;;;;;;;;5017157;28;20516;-81
2023/10/24 04:48:22;;;;;;;1.08;0.90;;;;;;;;;;5017297;28;20409;-81
2023/10/24 04:50:48;;;;;;;0.90;0.70;;;;;;;;;;5017068;28;20182;-81
2023/10/24 04:53:14;;;;;;;1.27;0.70;;;;;;;;;;5017012;28;20475;-81
2023/10/24 04:55:40;;;;;;;2.10;0.77;;;;;;;;;;5016577;28;20451;-81
2023/10/24 04:58:06;;;;;;;0.88;0.70;;;;;;;;;;5016972;28;20432;-81
2023/10/24 05:00:32;;;;;;;0.80;0.60;;;;;;;;;;5017345;28;20170;-81
2023/10/24 05:02:58;;;;;;;1.00;0.70;;;;;;;;;;5034875;28;20403;-82
2023/10/24 05:05:25;;;;;;;1.33;1.08;;;;;;;;;;5016958;28;20861;-81
2023/10/24 05:07:51;;;;;;;1.17;1.00;;;;;;;;;;5034203;28;20198;-81
2023/10/24 05:10:17;;;;;;;1.10;0.90;;;;;;;;;;5016641;28;20193;-81
2023/10/24 05:12:43;;;;;;;2.20;1.00;;;;;;;;;;5022577;28;20435;-81
2023/10/24 05:15:09;;;;;;;0.90;0.80;;;;;;;;;;5017077;28;20429;-81
2023/10/24 05:17:35;;;;;;;1.30;1.00;;;;;;;;;;5033113;28;20428;-81
2023/10/24 05:20:07;;;;;;;0.90;0.70;;;;;;;;;;5032985;28;20408;-81
2023/10/24 05:22:33;;;;;;;1.10;0.80;;;;;;;;;;5033080;28;20490;-81
2023/10/24 05:24:59;;;;;;;1.03;0.90;;;;;;;;;;5016736;28;20464;-81
2023/10/24 05:27:26;;;;;;;1.15;0.82;;;;;;;;;;5034187;28;20459;-81
2023/10/24 05:29:52;;;;;;;1.33;0.80;;;;;;;;;;5033989;28;20578;-81
2023/10/24 05:32:18;;;;;;;1.25;1.02;;;;;;;;;;5032996;28;20404;-81
2023/10/24 05:34:44;;;;;;;3.53;0.90;;;;;;;;;;5032467;28;20178;-81
2023/10/24 05:37:10;;;;;;;1.63;0.95;;;;;;;;;;5033015;28;20222;-81
2023/10/24 05:39:36;;;;;;;1.33;0.80;;;;;;;;;;5033977;28;20174;-80
2023/10/24 05:42:02;;;;;;;1.15;0.80;;;;;;;;;;5032670;28;20773;-81
2023/10/24 05:44:28;;;;;;;0.80;0.70;;;;;;;;;;5053821;28;20193;-81
2023/10/24 05:46:54;;;;;;;1.00;0.90;;;;;;;;;;5020902;28;20192;-81
2023/10/24 05:49:20;;;;;;;1.60;0.93;;;;;;;;;;5054043;28;20773;-81
2023/10/24 05:51:46;;;;;;;1.27;1.17;;;;;;;;;;5020914;28;20500;-81
2023/10/24 05:54:12;;;;;;;3.20;1.60;;;;;;;;;;5034101;28;20208;-81
2023/10/24 05:56:38;;;;;;;4.60;1.00;;;;;;;;;;5034210;28;20400;-82
2023/10/24 05:59:04;;;;;;;1.57;1.13;;;;;;;;;;5016212;28;20189;-81
2023/10/24 06:01:30;;;;;;;1.67;1.33;;;;;;;;;;5016385;28;20479;-81
2023/10/24 06:03:56;;;;;;;2.53;1.53;;;;;;;;;;5016048;28;20876;-81
2023/10/24 06:06:22;;;;;;;2.50;1.40;;;;;;;;;;5033948;28;20412;-81
2023/10/24 06:08:48;;;;;;;1.80;1.10;;;;;;;;;;5018451;28;20453;-81
2023/10/24 06:11:16;;;;;;;1.20;1.10;;;;;;;;;;5019524;28;20680;-81
2023/10/24 06:13:42;;;;;;;2.33;1.35;;;;;;;;;;5035815;28;20231;-81
2023/10/24 06:16:09;;;;;;;1.70;1.17;;;;;;;;;;5053865;28;20185;-81
2023/10/24 06:18:35;;;;;;;5.35;1.25;;;;;;;;;;5036050;28;20407;-81
2023/10/24 06:21:13;;;;;;;1.70;1.60;;;;;;;;;;5053006;28;20196;-81
2023/10/24 06:23:39;;;;;;;1.70;1.45;;;;;;;;;;5035905;28;20998;-81
2023/10/24 06:26:12;;;;;;;2.40;1.47;;;;;;;;;;5019709;28;20193;-81
2023/10/24 06:28:38;;;;;;;1.65;1.55;;;;;;;;;;5053192;28;20412;-81
2023/10/24 06:31:04;;;;;;;1.67;1.58;;;;;;;;;;5019683;28;20196;-81
2023/10/24 06:33:31;;;;;;;2.35;1.30;;;;;;;;;;5035387;28;20185;-81
2023/10/24 06:36:00;;;;;;;1.42;1.20;;;;;;;;;;5035750;28;20174;-81
2023/10/24 06:38:26;;;;;;;1.73;0.95;;;;;;;;;;5052057;28;20233;-82
2023/10/24 06:40:52;;;;;;;1.45;1.35;;;;;;;;;;5036061;28;20185;-81
2023/10/24 06:43:19;;;;;;;3.47;1.23;;;;;;;;;;5053690;28;20282;-81
2023/10/24 06:45:46;;;;;;;2.42;1.05;;;;;;;;;;5052866;28;20316;-80
2023/10/24 06:48:12;;;;;;;1.13;1.03;;;;;;;;;;5057124;28;20218;-81
2023/10/24 06:50:39;;;;;;;2.53;1.20;;;;;;;;;;5056074;28;20404;-81
2023/10/24 06:53:05;;;;;;;1.30;0.90;;;;;;;;;;5056273;28;20420;-80
2023/10/24 06:55:31;;;;;;;2.80;1.50;;;;;;;;;;5056104;28;20209;-81
2023/10/24 06:57:58;;;;;;;3.60;1.30;;;;;;;;;;5021912;28;20844;-80
2023/10/24 07:00:25;;;;;;;2.47;1.40;;;;;;;;;;5056502;28;20416;-81
2023/10/24 07:02:51;;;;;;;2.55;1.50;;;;;;;;;;5037801;28;20189;-80
2023/10/24 07:05:17;;;;;;;3.20;1.15;;;;;;;;;;5040940;28;20209;-81
2023/10/24 07:07:43;;;;;;;1.93;1.27;;;;;;;;;;5037013;28;20189;-80
2023/10/24 07:10:09;;;;;;;2.17;1.10;;;;;;;;;;5036429;28;20413;-81
2023/10/24 07:12:35;;;;;;;4.27;1.20;;;;;;;;;;5055691;28;20452;-80
2023/10/24 07:15:03;;;;;;;4.97;1.85;;;;;;;;;;5055101;28;20449;-81
2023/10/24 07:17:29;;;;;;;1.80;1.25;;;;;;;;;;5039701;28;20173;-80
2023/10/24 07:19:55;;;;;;;1.50;1.20;;;;;;;;;;5056481;28;20189;-81
2023/10/24 07:22:21;;;;;;;1.73;1.37;;;;;;;;;;5055648;28;20664;-80
2023/10/24 07:24:47;;;;;;;1.17;1.08;;;;;;;;;;5056420;28;20464;-80
2023/10/24 07:27:13;;;;;;;1.40;1.20;;;;;;;;;;5056671;28;20216;-81
2023/10/24 07:29:40;;;;;;;2.53;1.33;;;;;;;;;;5055006;28;20497;-81
2023/10/24 07:32:06;;;;;;;1.37;1.27;;;;;;;;;;5056398;28;20404;-80
2023/10/24 07:34:35;;;;;;;2.70;1.30;;;;;;;;;;5055405;28;20473;-80
2023/10/24 07:37:01;;;;;;;2.83;1.27;;;;;;;;;;5054957;28;20492;-80
2023/10/24 07:39:27;;;;;;;4.73;1.50;;;;;;;;;;5055154;28;20443;-80
2023/10/24 07:41:54;;;;;;;3.40;1.23;;;;;;;;;;5054781;28;20420;-80
2023/10/24 07:44:20;;;;;;;1.83;1.30;;;;;;;;;;5055613;28;20454;-80
2023/10/24 07:46:46;;;;;;;1.58;1.10;;;;;;;;;;5034452;28;20928;-81
2023/10/24 07:49:12;;;;;;;1.63;1.10;;;;;;;;;;5019249;28;20181;-80
2023/10/24 07:51:38;;;;;;;1.97;1.73;;;;;;;;;;5035866;28;20396;-80
2023/10/24 07:54:04;;;;;;;1.40;1.20;;;;;;;;;;5036106;28;20419;-80
2023/10/24 07:56:30;;;;;;;1.85;1.52;;;;;;;;;;5018472;28;20792;-81
2023/10/24 07:58:56;;;;;;;1.10;0.90;;;;;;;;;;5018156;28;20197;-80
2023/10/24 08:01:22;;;;;;;2.00;1.20;;;;;;;;;;5018894;28;20807;-80
2023/10/24 08:03:48;;;;;;;1.02;0.93;;;;;;;;;;5035909;28;20475;-81
2023/10/24 08:06:14;;;;;;;2.23;1.00;;;;;;;;;;5018232;28;20236;-81
2023/10/24 08:08:42;;;;;;;2.43;1.03;;;;;;;;;;5018666;28;20412;-80
2023/10/24 08:11:08;;;;;;;1.70;0.70;;;;;;;;;;5018183;28;20508;-80
2023/10/24 08:13:34;;;;;;;1.63;1.00;;;;;;;;;;5022611;28;20471;-80
2023/10/24 08:16:00;;;;;;;1.07;0.80;;;;;;;;;;5054925;28;20414;-81
2023/10/24 08:18:26;;;;;;;1.20;1.10;;;;;;;;;;5056526;28;20392;-81
2023/10/24 08:20:52;;;;;;;1.77;1.00;;;;;;;;;;5032220;28;20778;-80
2023/10/24 08:23:18;;;;;;;1.50;1.00;;;;;;;;;;5055701;28;20452;-80
2023/10/24 08:25:44;;;;;;;1.17;1.00;;;;;;;;;;5056124;28;20416;-80
2023/10/24 08:28:10;;;;;;;2.30;1.10;;;;;;;;;;5037706;28;20470;-81
2023/10/24 08:30:36;;;;;;;1.43;1.07;;;;;;;;;;5020075;28;20468;-81
2023/10/24 08:33:02;;;;;;;2.87;1.10;;;;;;;;;;5017799;28;20448;-81
2023/10/24 08:35:29;;;;;;;1.17;1.07;;;;;;;;;;5035920;28;20504;-81
2023/10/24 08:37:54;;;;;;;1.20;1.07;;;;;;;;;;5032482;28;20468;-81
2023/10/24 08:40:21;;;;;;;1.80;1.10;;;;;;;;;;5055348;28;20495;-80
2023/10/24 08:42:47;;;;;;;3.20;1.40;;;;;;;;;;5037057;28;20420;-80
2023/10/24 08:45:17;;;;;;;1.83;1.10;;;;;;;;;;5055556;28;20539;-80
2023/10/24 08:47:43;;;;;;;3.33;1.33;;;;;;;;;;5055285;28;20478;-81
2023/10/24 08:50:09;;;;;;;1.47;1.30;;;;;;;;;;5055407;28;20405;-81
2023/10/24 08:52:36;;;;;;;1.40;1.30;;;;;;;;;;5055457;28;20404;-81
2023/10/24 08:55:06;;;;;;;1.87;1.10;;;;;;;;;;5037490;28;20433;-80
2023/10/24 08:57:37;;;;;;;3.20;1.50;;;;;;;;;;5055536;28;20780;-80
2023/10/24 09:00:03;;;;;;;3.27;1.10;;;;;;;;;;5054914;28;20532;-80
2023/10/24 09:02:30;;;;;;;6.93;2.50;;;;;;;;;;5037744;28;20423;-81
2023/10/24 09:04:57;;;;;;;2.70;1.50;;;;;;;;;;5036860;28;20467;-80
2023/10/24 09:07:22;;;;;;;1.93;1.27;;;;;;;;;;5055017;28;20409;-80
2023/10/24 09:09:48;;;;;;;1.83;1.30;;;;;;;;;;5036851;28;20412;-80
2023/10/24 09:12:16;;;;;;;1.80;1.17;;;;;;;;;;5054180;28;20470;-80
2023/10/24 09:14:46;;;;;;;5.80;1.47;;;;;;;;;;5053634;28;20938;-80
2023/10/24 09:17:13;;;;;;;2.13;1.47;;;;;;;;;;5053321;28;20507;-80
2023/10/24 09:19:40;;;;;;;2.40;1.20;;;;;;;;;;5055193;28;20404;-79
2023/10/24 09:22:06;;;;;;;5.40;1.27;;;;;;;;;;5053277;28;20424;-80
2023/10/24 09:24:32;;;;;;;2.77;1.13;;;;;;;;;;5036900;28;20463;-80
2023/10/24 09:26:59;;;;;;;2.00;0.97;;;;;;;;;;5054649;28;20412;-80
2023/10/24 09:29:27;;;;;;;1.50;0.90;;;;;;;;;;5053601;28;20791;-81
2023/10/24 09:31:53;;;;;;;1.73;1.00;;;;;;;;;;5054799;28;20503;-80
2023/10/24 09:34:19;;;;;;;1.10;0.87;;;;;;;;;;5054572;28;20411;-80
2023/10/24 09:36:46;;;;;;;3.40;1.13;;;;;;;;;;5052775;28;20455;-80
2023/10/24 09:39:13;;;;;;;1.17;1.00;;;;;;;;;;5052921;28;20911;-80
2023/10/24 09:41:43;;;;;;;1.33;1.00;;;;;;;;;;5054744;28;20439;-80
2023/10/24 09:44:09;;;;;;;2.57;1.10;;;;;;;;;;5054351;28;20466;-80
2023/10/24 09:46:38;;;;;;;2.10;1.10;;;;;;;;;;5055036;28;20404;-81
2023/10/24 09:49:05;;;;;;;1.50;1.10;;;;;;;;;;5052937;28;20416;-80
2023/10/24 09:51:32;;;;;;;2.80;1.10;;;;;;;;;;5020099;28;20440;-80
2023/10/24 09:53:58;;;;;;;1.77;1.00;;;;;;;;;;5054247;28;20432;-81
2023/10/24 09:56:25;;;;;;;1.80;1.00;;;;;;;;;;5054522;28;20443;-81
2023/10/24 09:58:52;;;;;;;1.80;0.70;;;;;;;;;;5054272;28;20447;-81
2023/10/24 10:01:18;;;;;;;3.70;1.20;;;;;;;;;;5054387;28;20404;-80
2023/10/24 10:03:44;;;;;;;13.73;2.00;;;;;;;;;;5044222;28;20468;-80
2023/10/24 10:06:11;;;;;;;4.10;1.40;;;;;;;;;;5034894;28;20429;-80
2023/10/24 10:08:38;;;;;;;1.17;0.90;;;;;;;;;;5021447;28;20432;-80
2023/10/24 10:11:05;;;;;;;1.60;1.10;;;;;;;;;;5053945;28;20763;-81
2023/10/24 10:13:33;;;;;;;5.47;1.00;;;;;;;;;;5054321;28;20463;-80
2023/10/24 10:15:59;;;;;;;1.63;1.00;;;;;;;;;;5054563;28;20404;-80
2023/10/24 10:18:32;;;;;;;1.70;1.00;;;;;;;;;;5054181;28;20410;-81
2023/10/24 10:21:17;;;;;;;1.83;0.90;;;;;;;;;;5036773;28;20422;-80
2023/10/24 10:23:50;;;;;;;1.30;0.97;;;;;;;;;;5058337;28;20462;-80
2023/10/24 10:26:22;;;;;;;1.90;1.00;;;;;;;;;;5057979;28;20487;-80
2023/10/24 10:28:48;;;;;;;1.90;1.53;;;;;;;;;;5058133;28;20915;-80
2023/10/24 10:31:21;;;;;;;1.33;1.10;;;;;;;;;;5058063;28;20404;-80
2023/10/24 10:33:47;;;;;;;1.10;1.00;;;;;;;;;;5058263;28;20494;-79
2023/10/24 10:36:13;;;;;;;1.40;1.10;;;;;;;;;;5057909;28;20478;-80
2023/10/24 10:38:42;;;;;;;1.70;1.30;;;;;;;;;;5040257;28;20463;-80
2023/10/24 10:41:23;;;;;;;2.83;1.23;;;;;;;;;;5057838;28;20770;-79
2023/10/24 10:43:53;;;;;;;2.47;1.23;;;;;;;;;;5037994;28;20506;-80
2023/10/24 10:46:26;;;;;;;2.27;1.10;;;;;;;;;;5044254;28;20423;-80
2023/10/24 10:48:52;;;;;;;2.70;1.00;;;;;;;;;;5049907;28;20885;-80
2023/10/24 10:51:23;;;;;;;1.93;0.87;;;;;;;;;;5037621;28;20437;-80
2023/10/24 10:53:53;;;;;;;2.13;1.10;;;;;;;;;;5037933;28;20771;-81
2023/10/24 10:56:22;;;;;;;1.57;1.20;;;;;;;;;;5039407;28;20436;-80
2023/10/24 10:59:15;;;;;;;3.07;1.33;;;;;;;;;;5057972;28;20416;-80
2023/10/24 11:01:59;;;;;;;2.77;1.20;;;;;;;;;;5053132;28;20481;-81
2023/10/24 11:04:25;;;;;;;1.50;1.20;;;;;;;;;;5057567;28;20463;-80
2023/10/24 11:06:52;;;;;;;2.87;0.97;;;;;;;;;;5057539;28;20884;-80
2023/10/24 11:09:20;;;;;;;1.83;1.37;;;;;;;;;;5057378;28;20650;-80
2023/10/24 11:11:46;;;;;;;2.80;1.50;;;;;;;;;;5039693;28;20412;-80
2023/10/24 11:14:21;;;;;;;1.20;1.07;;;;;;;;;;5057040;28;20927;-81
2023/10/24 11:16:48;;;;;;;5.13;1.73;;;;;;;;;;5039199;28;20408;-81
2023/10/24 11:19:21;;;;;;;1.87;1.37;;;;;;;;;;5039226;28;20439;-80
2023/10/24 11:21:50;;;;;;;2.93;1.40;;;;;;;;;;5057432;28;20466;-79
2023/10/24 11:24:19;;;;;;;3.60;1.33;;;;;;;;;;5057170;28;20816;-79
2023/10/24 11:26:45;;;;;;;1.83;1.30;;;;;;;;;;5056937;28;20427;-80
2023/10/24 11:29:13;;;;;;;4.80;1.67;;;;;;;;;;5057477;28;20510;-79
2023/10/24 11:31:39;;;;;;;2.17;1.60;;;;;;;;;;5057064;28;20400;-79
2023/10/24 11:34:05;;;;;;;2.78;1.80;;;;;;;;;;5039463;28;20415;-80
2023/10/24 11:36:31;;;;;;;2.50;1.87;;;;;;;;;;5038515;28;20185;-80
2023/10/24 11:38:58;;;;;;;2.10;1.80;;;;;;;;;;5057071;28;20891;-80
2023/10/24 11:41:24;;;;;;;3.30;1.90;;;;;;;;;;5022844;28;20665;-80
2023/10/24 11:43:51;;;;;;;3.50;2.25;;;;;;;;;;5056439;28;20216;-80
2023/10/24 11:46:17;;;;;;;3.23;2.70;;;;;;;;;;5056656;28;20181;-80
2023/10/24 11:48:43;;;;;;;5.33;2.87;;;;;;;;;;5038710;28;20431;-81
2023/10/24 11:51:09;;;;;;;3.80;2.50;;;;;;;;;;5056528;28;20483;-80
2023/10/24 11:53:35;;;;;;;2.50;2.10;;;;;;;;;;5022469;28;20977;-82
2023/10/24 11:56:01;;;;;;;3.47;1.75;;;;;;;;;;5038040;28;20951;-80
2023/10/24 11:58:34;;;;;;;3.23;1.90;;;;;;;;;;5056232;28;20227;-82
2023/10/24 12:01:00;;;;;;;4.97;2.40;;;;;;;;;;5056206;28;20800;-82
2023/10/24 12:03:27;;;;;;;3.90;2.10;;;;;;;;;;5038351;28;21002;-82
2023/10/24 12:05:55;;;;;;;3.97;2.55;;;;;;;;;;5038066;28;20512;-81
2023/10/24 12:08:23;;;;;;;7.80;3.22;;;;;;;;;;5055622;28;20175;-82
2023/10/24 12:10:53;;;;;;;4.18;3.38;;;;;;;;;;5037792;28;20223;-82
2023/10/24 12:13:18;;;;;;;7.80;2.80;;;;;;;;;;5055748;28;20177;-82
2023/10/24 12:15:44;;;;;;;3.90;1.97;;;;;;;;;;5045104;28;20587;-81
2023/10/24 12:18:10;;;;;;;1.80;1.70;;;;;;;;;;5018321;28;20408;-81
2023/10/24 12:20:36;;;;;;;1.63;1.50;;;;;;;;;;5036252;28;20416;-79
2023/10/24 12:23:02;;;;;;;1.53;1.27;;;;;;;;;;5018241;28;20932;-80
2023/10/24 12:25:28;;;;;;;3.40;1.27;;;;;;;;;;5035832;28;20476;-80
2023/10/24 12:27:54;;;;;;;1.08;0.98;;;;;;;;;;5018122;28;20413;-80
2023/10/24 12:30:20;;;;;;;2.40;1.08;;;;;;;;;;5036203;28;20180;-81
2023/10/24 12:32:46;;;;;;;3.63;0.90;;;;;;;;;;5018055;28;20280;-80
2023/10/24 12:35:12;;;;;;;2.10;1.20;;;;;;;;;;5035621;28;20413;-81
2023/10/24 12:37:38;;;;;;;1.35;0.90;;;;;;;;;;5017389;28;20538;-80
2023/10/24 12:40:05;;;;;;;2.17;1.17;;;;;;;;;;5017887;28;20178;-80
2023/10/24 12:42:32;;;;;;;1.80;1.20;;;;;;;;;;5018363;28;20424;-80
2023/10/24 12:44:58;;;;;;;1.95;1.00;;;;;;;;;;5034844;28;20207;-80
2023/10/24 12:47:24;;;;;;;3.00;0.90;;;;;;;;;;5034977;28;20182;-80
2023/10/24 12:49:50;;;;;;;1.75;1.10;;;;;;;;;;5018160;28;20796;-80
2023/10/24 12:52:16;;;;;;;2.70;1.20;;;;;;;;;;5035165;28;20205;-80
2023/10/24 12:54:43;;;;;;;2.20;0.93;;;;;;;;;;5051598;28;20416;-80
2023/10/24 12:57:09;;;;;;;1.10;1.00;;;;;;;;;;5037707;28;20404;-80
2023/10/24 12:59:35;;;;;;;1.48;1.20;;;;;;;;;;5037181;28;20186;-80
2023/10/24 13:02:01;;;;;;;2.13;0.90;;;;;;;;;;5037973;28;20209;-79
2023/10/24 13:04:27;;;;;;;1.65;1.20;;;;;;;;;;5055245;28;20185;-80
2023/10/24 13:06:56;;;;;;;1.97;1.23;;;;;;;;;;5037572;28;20173;-80
2023/10/24 13:09:25;;;;;;;4.47;1.58;;;;;;;;;;5021086;28;20948;-80
2023/10/24 13:11:52;;;;;;;2.85;1.17;;;;;;;;;;5055069;28;20265;-79
2023/10/24 13:14:19;;;;;;;6.53;1.00;;;;;;;;;;5054887;28;20173;-79
2023/10/24 13:16:45;;;;;;;2.17;1.67;;;;;;;;;;5054916;28;20165;-80
2023/10/24 13:19:11;;;;;;;1.90;1.00;;;;;;;;;;5055258;28;20260;-80
2023/10/24 13:21:37;;;;;;;60.60;6.95;;;;;;;;;;5020519;28;20185;-80
2023/10/24 13:24:03;;;;;;;6.40;2.70;;;;;;;;;;5020376;28;20208;-80
2023/10/24 13:26:30;;;;;;;5.30;1.50;;;;;;;;;;5055063;28;20420;-80
2023/10/24 13:28:56;;;;;;;3.43;2.63;;;;;;;;;;5037015;28;20427;-79
2023/10/24 13:31:21;;;;;;;1.50;1.10;;;;;;;;;;5054644;28;20409;-80
2023/10/24 13:33:49;;;;;;;1.60;1.33;;;;;;;;;;5020695;28;20904;-80
2023/10/24 13:36:15;;;;;;;1.40;1.30;;;;;;;;;;5054315;28;20479;-80
2023/10/24 13:38:41;;;;;;;1.70;1.30;;;;;;;;;;5054491;28;20455;-80
2023/10/24 13:41:07;;;;;;;1.20;0.90;;;;;;;;;;5054062;28;20396;-81
2023/10/24 13:43:34;;;;;;;1.83;0.90;;;;;;;;;;5054501;28;20502;-80
2023/10/24 13:46:00;;;;;;;1.67;0.80;;;;;;;;;;5023434;28;20471;-81
2023/10/24 13:48:27;;;;;;;1.10;0.90;;;;;;;;;;5033332;28;20416;-81
2023/10/24 13:50:53;;;;;;;1.60;0.80;;;;;;;;;;5016807;28;20777;-81
2023/10/24 13:53:19;;;;;;;1.20;0.80;;;;;;;;;;5033026;28;20496;-81
2023/10/24 13:55:45;;;;;;;2.03;0.80;;;;;;;;;;5035680;28;20424;-81
2023/10/24 13:58:11;;;;;;;1.00;0.70;;;;;;;;;;5036493;28;20444;-81
2023/10/24 14:00:37;;;;;;;3.60;1.00;;;;;;;;;;5036105;28;20427;-81
2023/10/24 14:03:05;;;;;;;1.73;0.70;;;;;;;;;;5054388;28;20397;-81
2023/10/24 14:05:31;;;;;;;2.10;0.77;;;;;;;;;;5036210;28;20482;-81
2023/10/24 14:07:57;;;;;;;1.00;0.80;;;;;;;;;;5036013;28;20403;-82
2023/10/24 14:10:23;;;;;;;2.30;0.87;;;;;;;;;;5053835;28;20404;-81
2023/10/24 14:12:49;;;;;;;1.37;1.00;;;;;;;;;;5053853;28;20494;-82
2023/10/24 14:15:15;;;;;;;1.30;0.83;;;;;;;;;;5053224;28;20868;-82
2023/10/24 14:17:41;;;;;;;1.90;0.90;;;;;;;;;;5053434;28;20842;-82
2023/10/24 14:20:07;;;;;;;1.97;1.00;;;;;;;;;;5035255;28;20451;-81
2023/10/24 14:22:34;;;;;;;1.23;0.80;;;;;;;;;;5035772;28;20424;-81
2023/10/24 14:25:02;;;;;;;1.13;0.70;;;;;;;;;;5035853;28;20471;-81
2023/10/24 14:27:28;;;;;;;2.10;0.83;;;;;;;;;;5031367;28;20806;-81
2023/10/24 14:29:54;;;;;;;1.00;0.70;;;;;;;;;;5036105;28;20412;-81
2023/10/24 14:32:21;;;;;;;2.57;0.83;;;;;;;;;;5024745;28;20445;-81
2023/10/24 14:34:47;;;;;;;1.03;0.77;;;;;;;;;;5053612;28;20757;-81
2023/10/24 14:37:13;;;;;;;3.43;0.90;;;;;;;;;;5035173;28;20979;-81
2023/10/24 14:39:39;;;;;;;1.00;0.70;;;;;;;;;;5052997;28;20449;-82